Ana Sayfa
METAR-TAF:

METAR-TAF

Havaalanları :

Slave Lake, Alberta, Kanada

Enlem: 55-18N, Boylam: 114-47W, yükseklik: 581 m

Güncel hava durumu gözlemi

Rapor saat 19:00 UTC de 30 dakika önce yapıldı.
Rüzgar batıdan 6 kt
Sıcaklık -12°C
Nem 78%
Basınç 1026 hPa
Görüş mesafesi: 14.5 km
Açık gökyüzü

METAR: CYZH 241900Z AUTO 27006KT 9SM CLR M12/M15 A3029 RMK SLP307

Saat: 12:30 (19:30 UTC)

Tahmin

Rapor saat 18:38 UTC de 52 dakika önce yapıldı.
Ayın 24'si saat 19 UTC'den ayın 25'si saat 07 UTC'ye kadar geçerli Tahmin
Rüzgar batı/kuzeybatıdan 5 kt
Görüş mesafesi: 10 km
Açık gökyüzü

TAF: CYZH 241838Z 2419/2507 29005KT P6SM SKC RMK FCST BASED ON AUTO OBS. NXT FCST BY 250100Z

4.000'den fazla havaalanı için hava durumu gözlemleri ve tahminleri (METAR ve TAF raporları).

Kullanılabilir istasyonlar harita üzerinde sarı ve kırmızı noktalarla gösterilir.

İstasyonun adını görmek için fareyi noktanın üzerinde gezdirin.

Sonrasında hava gözlem ve tahminlerini görmek için tıklayın.

Haritayı değiştirmek için: yaklaştırmak için siyah artı işaretli yeşil düğmeye ve uzaklaştırmak için de eksi işaretli düğmeye hızla tıklayın; bitişik haritalar için yeşil okları kullanın.


METAR-TAF: